sensor_id;sensor_type;location;lat;lon;timestamp;temperature;humidity
41058;DHT22;27499;48.884;2.258;2022-11-09T00:01:05;15.40;99.90
41058;DHT22;27499;48.884;2.258;2022-11-09T00:03:32;15.30;99.90
41058;DHT22;27499;48.884;2.258;2022-11-09T00:05:59;15.30;99.90
41058;DHT22;27499;48.884;2.258;2022-11-09T00:08:27;15.30;99.90
41058;DHT22;27499;48.884;2.258;2022-11-09T00:10:54;15.30;99.90
41058;DHT22;27499;48.884;2.258;2022-11-09T00:13:21;15.30;99.90
41058;DHT22;27499;48.884;2.258;2022-11-09T00:15:48;15.30;99.90
41058;DHT22;27499;48.884;2.258;2022-11-09T00:18:15;15.30;99.90
41058;DHT22;27499;48.884;2.258;2022-11-09T00:20:42;15.30;99.90
41058;DHT22;27499;48.884;2.258;2022-11-09T00:23:14;15.20;99.90
41058;DHT22;27499;48.884;2.258;2022-11-09T00:25:42;15.20;99.90
41058;DHT22;27499;48.884;2.258;2022-11-09T00:28:09;15.20;99.90
41058;DHT22;27499;48.884;2.258;2022-11-09T00:30:35;15.20;99.90
41058;DHT22;27499;48.884;2.258;2022-11-09T00:33:02;15.10;99.90
41058;DHT22;27499;48.884;2.258;2022-11-09T00:35:29;15.10;99.90
41058;DHT22;27499;48.884;2.258;2022-11-09T00:37:56;15.10;99.90
41058;DHT22;27499;48.884;2.258;2022-11-09T00:40:23;15.10;99.90
41058;DHT22;27499;48.884;2.258;2022-11-09T00:42:50;15.00;99.90
41058;DHT22;27499;48.884;2.258;2022-11-09T00:45:17;15.00;99.90
41058;DHT22;27499;48.884;2.258;2022-11-09T00:47:44;15.00;99.90
41058;DHT22;27499;48.884;2.258;2022-11-09T00:50:10;15.00;99.90
41058;DHT22;27499;48.884;2.258;2022-11-09T00:52:37;15.00;99.90
41058;DHT22;27499;48.884;2.258;2022-11-09T00:55:04;14.90;99.90
41058;DHT22;27499;48.884;2.258;2022-11-09T00:57:31;14.90;99.90
41058;DHT22;27499;48.884;2.258;2022-11-09T00:59:58;14.90;99.90
41058;DHT22;27499;48.884;2.258;2022-11-09T01:02:25;14.90;99.90
41058;DHT22;27499;48.884;2.258;2022-11-09T01:04:51;14.90;99.90
41058;DHT22;27499;48.884;2.258;2022-11-09T01:07:18;14.80;99.90
41058;DHT22;27499;48.884;2.258;2022-11-09T01:09:45;14.80;99.90
41058;DHT22;27499;48.884;2.258;2022-11-09T01:12:12;14.80;99.90
41058;DHT22;27499;48.884;2.258;2022-11-09T01:14:39;14.80;99.90
41058;DHT22;27499;48.884;2.258;2022-11-09T01:17:06;14.80;99.90
41058;DHT22;27499;48.884;2.258;2022-11-09T01:19:33;14.80;99.90
41058;DHT22;27499;48.884;2.258;2022-11-09T01:21:59;14.80;99.90
41058;DHT22;27499;48.884;2.258;2022-11-09T01:24:26;14.80;99.90
41058;DHT22;27499;48.884;2.258;2022-11-09T01:26:53;14.70;99.90
41058;DHT22;27499;48.884;2.258;2022-11-09T01:29:20;14.70;99.90
41058;DHT22;27499;48.884;2.258;2022-11-09T01:31:47;14.70;99.90
41058;DHT22;27499;48.884;2.258;2022-11-09T01:34:14;14.70;99.90
41058;DHT22;27499;48.884;2.258;2022-11-09T01:36:43;14.60;99.90
41058;DHT22;27499;48.884;2.258;2022-11-09T01:39:10;14.60;99.90
41058;DHT22;27499;48.884;2.258;2022-11-09T01:41:36;14.60;99.90
41058;DHT22;27499;48.884;2.258;2022-11-09T01:44:15;14.60;99.90
41058;DHT22;27499;48.884;2.258;2022-11-09T01:46:52;14.60;99.90
41058;DHT22;27499;48.884;2.258;2022-11-09T01:49:42;14.50;99.90
41058;DHT22;27499;48.884;2.258;2022-11-09T01:52:26;14.50;99.90
41058;DHT22;27499;48.884;2.258;2022-11-09T01:55:05;14.50;99.90
41058;DHT22;27499;48.884;2.258;2022-11-09T01:57:39;14.50;99.90
41058;DHT22;27499;48.884;2.258;2022-11-09T02:00:09;14.50;99.90
41058;DHT22;27499;48.884;2.258;2022-11-09T02:02:40;14.50;99.90
41058;DHT22;27499;48.884;2.258;2022-11-09T02:05:14;14.40;99.90
41058;DHT22;27499;48.884;2.258;2022-11-09T02:07:43;14.40;99.90
41058;DHT22;27499;48.884;2.258;2022-11-09T02:10:21;14.40;99.90
41058;DHT22;27499;48.884;2.258;2022-11-09T02:12:49;14.40;99.90
41058;DHT22;27499;48.884;2.258;2022-11-09T02:15:16;14.30;99.90
41058;DHT22;27499;48.884;2.258;2022-11-09T02:17:43;14.30;99.90
41058;DHT22;27499;48.884;2.258;2022-11-09T02:20:15;14.30;99.90
41058;DHT22;27499;48.884;2.258;2022-11-09T02:22:42;14.30;99.90
41058;DHT22;27499;48.884;2.258;2022-11-09T02:25:12;14.30;99.90
41058;DHT22;27499;48.884;2.258;2022-11-09T02:27:41;14.30;99.90
41058;DHT22;27499;48.884;2.258;2022-11-09T02:30:09;14.30;99.90
41058;DHT22;27499;48.884;2.258;2022-11-09T02:32:36;14.30;99.90
41058;DHT22;27499;48.884;2.258;2022-11-09T02:35:03;14.20;99.90
41058;DHT22;27499;48.884;2.258;2022-11-09T02:37:48;14.20;99.90
41058;DHT22;27499;48.884;2.258;2022-11-09T02:40:22;14.20;99.90
41058;DHT22;27499;48.884;2.258;2022-11-09T02:42:51;14.20;99.90
41058;DHT22;27499;48.884;2.258;2022-11-09T02:45:18;14.20;99.90
41058;DHT22;27499;48.884;2.258;2022-11-09T02:47:45;14.10;99.90
41058;DHT22;27499;48.884;2.258;2022-11-09T02:50:11;14.10;99.90
41058;DHT22;27499;48.884;2.258;2022-11-09T02:52:38;14.10;99.90
41058;DHT22;27499;48.884;2.258;2022-11-09T02:55:05;14.10;99.90
41058;DHT22;27499;48.884;2.258;2022-11-09T02:57:32;14.10;99.90
41058;DHT22;27499;48.884;2.258;2022-11-09T02:59:59;14.00;99.90
41058;DHT22;27499;48.884;2.258;2022-11-09T03:02:26;14.00;99.90
41058;DHT22;27499;48.884;2.258;2022-11-09T03:04:53;14.00;99.90
41058;DHT22;27499;48.884;2.258;2022-11-09T03:07:20;14.00;99.90
41058;DHT22;27499;48.884;2.258;2022-11-09T03:09:47;13.90;99.90
41058;DHT22;27499;48.884;2.258;2022-11-09T03:12:13;13.90;99.90
41058;DHT22;27499;48.884;2.258;2022-11-09T03:14:59;13.90;99.90
41058;DHT22;27499;48.884;2.258;2022-11-09T03:17:27;13.90;99.90
41058;DHT22;27499;48.884;2.258;2022-11-09T03:19:54;13.90;99.90
41058;DHT22;27499;48.884;2.258;2022-11-09T03:22:21;13.90;99.90
41058;DHT22;27499;48.884;2.258;2022-11-09T03:24:47;13.90;99.90
41058;DHT22;27499;48.884;2.258;2022-11-09T03:27:15;13.90;99.90
41058;DHT22;27499;48.884;2.258;2022-11-09T03:29:42;13.90;99.90
41058;DHT22;27499;48.884;2.258;2022-11-09T03:32:09;13.90;99.90
41058;DHT22;27499;48.884;2.258;2022-11-09T03:34:36;13.90;99.90
41058;DHT22;27499;48.884;2.258;2022-11-09T03:37:03;13.80;99.90
41058;DHT22;27499;48.884;2.258;2022-11-09T03:39:30;13.80;99.90
41058;DHT22;27499;48.884;2.258;2022-11-09T03:41:56;13.80;99.90
41058;DHT22;27499;48.884;2.258;2022-11-09T03:44:23;13.80;99.90
41058;DHT22;27499;48.884;2.258;2022-11-09T03:46:50;13.80;99.90
41058;DHT22;27499;48.884;2.258;2022-11-09T03:49:17;13.70;99.90
41058;DHT22;27499;48.884;2.258;2022-11-09T03:51:44;13.70;99.90
41058;DHT22;27499;48.884;2.258;2022-11-09T03:54:11;13.70;99.90
41058;DHT22;27499;48.884;2.258;2022-11-09T03:56:38;13.70;99.90
41058;DHT22;27499;48.884;2.258;2022-11-09T03:59:05;13.70;99.90
41058;DHT22;27499;48.884;2.258;2022-11-09T04:01:32;13.70;99.90
41058;DHT22;27499;48.884;2.258;2022-11-09T04:03:59;13.70;99.90
41058;DHT22;27499;48.884;2.258;2022-11-09T04:06:25;13.60;99.90
41058;DHT22;27499;48.884;2.258;2022-11-09T04:08:52;13.60;99.90
41058;DHT22;27499;48.884;2.258;2022-11-09T04:11:19;13.60;99.90
41058;DHT22;27499;48.884;2.258;2022-11-09T04:13:46;13.60;99.90
41058;DHT22;27499;48.884;2.258;2022-11-09T04:16:13;13.60;99.90
41058;DHT22;27499;48.884;2.258;2022-11-09T04:18:40;13.60;99.90
41058;DHT22;27499;48.884;2.258;2022-11-09T04:21:06;13.50;99.90
41058;DHT22;27499;48.884;2.258;2022-11-09T04:23:33;13.50;99.90
41058;DHT22;27499;48.884;2.258;2022-11-09T04:26:00;13.50;99.90
41058;DHT22;27499;48.884;2.258;2022-11-09T04:28:27;13.40;99.90
41058;DHT22;27499;48.884;2.258;2022-11-09T04:30:59;13.50;99.90
41058;DHT22;27499;48.884;2.258;2022-11-09T04:33:26;13.40;99.90
41058;DHT22;27499;48.884;2.258;2022-11-09T04:35:53;13.40;99.90
41058;DHT22;27499;48.884;2.258;2022-11-09T04:38:19;13.40;99.90
41058;DHT22;27499;48.884;2.258;2022-11-09T04:40:46;13.30;99.90
41058;DHT22;27499;48.884;2.258;2022-11-09T04:43:13;13.30;99.90
41058;DHT22;27499;48.884;2.258;2022-11-09T04:45:41;13.30;99.90
41058;DHT22;27499;48.884;2.258;2022-11-09T04:48:09;13.30;99.90
41058;DHT22;27499;48.884;2.258;2022-11-09T04:50:36;13.40;99.90
41058;DHT22;27499;48.884;2.258;2022-11-09T04:53:11;13.40;99.90
41058;DHT22;27499;48.884;2.258;2022-11-09T04:55:39;13.40;99.90
41058;DHT22;27499;48.884;2.258;2022-11-09T04:58:07;13.40;99.90
41058;DHT22;27499;48.884;2.258;2022-11-09T05:00:34;13.30;99.90
41058;DHT22;27499;48.884;2.258;2022-11-09T05:03:03;13.40;99.90
41058;DHT22;27499;48.884;2.258;2022-11-09T05:05:32;13.40;99.90
41058;DHT22;27499;48.884;2.258;2022-11-09T05:07:59;13.40;99.90
41058;DHT22;27499;48.884;2.258;2022-11-09T05:10:26;13.40;99.90
41058;DHT22;27499;48.884;2.258;2022-11-09T05:12:57;13.30;99.90
41058;DHT22;27499;48.884;2.258;2022-11-09T05:15:25;13.40;99.90
41058;DHT22;27499;48.884;2.258;2022-11-09T05:17:52;13.30;99.90
41058;DHT22;27499;48.884;2.258;2022-11-09T05:20:19;13.30;99.90
41058;DHT22;27499;48.884;2.258;2022-11-09T05:22:46;13.30;99.90
41058;DHT22;27499;48.884;2.258;2022-11-09T05:25:31;13.30;99.90
41058;DHT22;27499;48.884;2.258;2022-11-09T05:27:58;13.30;99.90
41058;DHT22;27499;48.884;2.258;2022-11-09T05:30:25;13.30;99.90
41058;DHT22;27499;48.884;2.258;2022-11-09T05:32:52;13.30;99.90
41058;DHT22;27499;48.884;2.258;2022-11-09T05:35:19;13.30;99.90
41058;DHT22;27499;48.884;2.258;2022-11-09T05:37:47;13.30;99.90
41058;DHT22;27499;48.884;2.258;2022-11-09T05:40:15;13.30;99.90
41058;DHT22;27499;48.884;2.258;2022-11-09T05:42:43;13.30;99.90
41058;DHT22;27499;48.884;2.258;2022-11-09T05:45:13;13.20;99.90
41058;DHT22;27499;48.884;2.258;2022-11-09T05:48:02;13.20;99.90
41058;DHT22;27499;48.884;2.258;2022-11-09T05:50:29;13.20;99.90
41058;DHT22;27499;48.884;2.258;2022-11-09T05:52:59;13.20;99.90
41058;DHT22;27499;48.884;2.258;2022-11-09T05:55:27;13.20;99.90
41058;DHT22;27499;48.884;2.258;2022-11-09T05:57:54;13.20;99.90
41058;DHT22;27499;48.884;2.258;2022-11-09T06:00:21;13.20;99.90
41058;DHT22;27499;48.884;2.258;2022-11-09T06:02:48;13.20;99.90
41058;DHT22;27499;48.884;2.258;2022-11-09T06:05:15;13.20;99.90
41058;DHT22;27499;48.884;2.258;2022-11-09T06:07:42;13.20;99.90
41058;DHT22;27499;48.884;2.258;2022-11-09T06:10:09;13.20;99.90
41058;DHT22;27499;48.884;2.258;2022-11-09T06:12:36;13.30;99.90
41058;DHT22;27499;48.884;2.258;2022-11-09T06:15:04;13.30;99.90
41058;DHT22;27499;48.884;2.258;2022-11-09T06:17:31;13.30;99.90
41058;DHT22;27499;48.884;2.258;2022-11-09T06:19:58;13.20;99.90
41058;DHT22;27499;48.884;2.258;2022-11-09T06:22:25;13.30;99.90
41058;DHT22;27499;48.884;2.258;2022-11-09T06:24:51;13.30;99.90
41058;DHT22;27499;48.884;2.258;2022-11-09T06:27:18;13.30;99.90
41058;DHT22;27499;48.884;2.258;2022-11-09T06:29:45;13.30;99.90
41058;DHT22;27499;48.884;2.258;2022-11-09T06:32:12;13.30;99.90
41058;DHT22;27499;48.884;2.258;2022-11-09T06:34:39;13.30;99.90
41058;DHT22;27499;48.884;2.258;2022-11-09T06:37:06;13.20;99.90
41058;DHT22;27499;48.884;2.258;2022-11-09T06:39:33;13.20;99.90
41058;DHT22;27499;48.884;2.258;2022-11-09T06:42:00;13.20;99.90
41058;DHT22;27499;48.884;2.258;2022-11-09T06:44:27;13.30;99.90
41058;DHT22;27499;48.884;2.258;2022-11-09T06:46:53;13.30;99.90
41058;DHT22;27499;48.884;2.258;2022-11-09T06:49:20;13.30;99.90
41058;DHT22;27499;48.884;2.258;2022-11-09T06:51:47;13.30;99.90
41058;DHT22;27499;48.884;2.258;2022-11-09T06:54:14;13.30;99.90
41058;DHT22;27499;48.884;2.258;2022-11-09T06:56:41;13.30;99.90
41058;DHT22;27499;48.884;2.258;2022-11-09T06:59:08;13.30;99.90
41058;DHT22;27499;48.884;2.258;2022-11-09T07:01:35;13.30;99.90
41058;DHT22;27499;48.884;2.258;2022-11-09T07:04:03;13.30;99.90
41058;DHT22;27499;48.884;2.258;2022-11-09T07:06:30;13.40;99.90
41058;DHT22;27499;48.884;2.258;2022-11-09T07:08:57;13.40;99.90
41058;DHT22;27499;48.884;2.258;2022-11-09T07:11:24;13.40;99.90
41058;DHT22;27499;48.884;2.258;2022-11-09T07:13:51;13.40;99.90
41058;DHT22;27499;48.884;2.258;2022-11-09T07:16:23;13.50;99.90
41058;DHT22;27499;48.884;2.258;2022-11-09T07:18:50;13.40;99.90
41058;DHT22;27499;48.884;2.258;2022-11-09T07:21:16;13.40;99.90
41058;DHT22;27499;48.884;2.258;2022-11-09T07:23:46;13.40;99.90
41058;DHT22;27499;48.884;2.258;2022-11-09T07:26:14;13.50;99.90
41058;DHT22;27499;48.884;2.258;2022-11-09T07:28:41;13.50;99.90
41058;DHT22;27499;48.884;2.258;2022-11-09T07:31:08;13.50;99.90
41058;DHT22;27499;48.884;2.258;2022-11-09T07:33:35;13.50;99.90
41058;DHT22;27499;48.884;2.258;2022-11-09T07:36:04;13.50;99.90
41058;DHT22;27499;48.884;2.258;2022-11-09T07:38:31;13.50;99.90
41058;DHT22;27499;48.884;2.258;2022-11-09T07:40:59;13.60;99.90
41058;DHT22;27499;48.884;2.258;2022-11-09T07:43:27;13.60;99.90
41058;DHT22;27499;48.884;2.258;2022-11-09T07:45:54;13.60;99.90
41058;DHT22;27499;48.884;2.258;2022-11-09T07:48:21;13.70;99.90
41058;DHT22;27499;48.884;2.258;2022-11-09T07:50:48;13.70;99.90
41058;DHT22;27499;48.884;2.258;2022-11-09T07:53:16;13.70;99.90
41058;DHT22;27499;48.884;2.258;2022-11-09T07:55:43;13.70;99.90
41058;DHT22;27499;48.884;2.258;2022-11-09T07:58:12;13.80;99.90
41058;DHT22;27499;48.884;2.258;2022-11-09T08:00:41;13.80;99.90
41058;DHT22;27499;48.884;2.258;2022-11-09T08:03:08;13.80;99.90
41058;DHT22;27499;48.884;2.258;2022-11-09T08:05:35;13.90;99.90
41058;DHT22;27499;48.884;2.258;2022-11-09T08:08:06;13.90;99.90
41058;DHT22;27499;48.884;2.258;2022-11-09T08:10:34;13.90;99.90
41058;DHT22;27499;48.884;2.258;2022-11-09T08:13:05;13.90;99.90
41058;DHT22;27499;48.884;2.258;2022-11-09T08:15:34;13.90;99.90
41058;DHT22;27499;48.884;2.258;2022-11-09T08:18:05;13.90;99.90
41058;DHT22;27499;48.884;2.258;2022-11-09T08:20:33;13.90;99.90
41058;DHT22;27499;48.884;2.258;2022-11-09T08:23:00;14.00;99.90
41058;DHT22;27499;48.884;2.258;2022-11-09T08:25:34;14.00;99.90
41058;DHT22;27499;48.884;2.258;2022-11-09T08:28:01;14.00;99.90
41058;DHT22;27499;48.884;2.258;2022-11-09T08:30:29;14.00;99.90
41058;DHT22;27499;48.884;2.258;2022-11-09T08:32:58;14.00;99.90
41058;DHT22;27499;48.884;2.258;2022-11-09T08:35:26;14.00;99.90
41058;DHT22;27499;48.884;2.258;2022-11-09T08:37:53;14.00;99.90
41058;DHT22;27499;48.884;2.258;2022-11-09T08:40:23;14.00;99.90
41058;DHT22;27499;48.884;2.258;2022-11-09T08:42:51;14.10;99.90
41058;DHT22;27499;48.884;2.258;2022-11-09T08:45:19;14.10;99.90
41058;DHT22;27499;48.884;2.258;2022-11-09T08:47:46;14.10;99.90
41058;DHT22;27499;48.884;2.258;2022-11-09T08:50:14;14.10;99.90
41058;DHT22;27499;48.884;2.258;2022-11-09T08:52:41;14.20;99.90
41058;DHT22;27499;48.884;2.258;2022-11-09T08:55:08;14.20;99.90
41058;DHT22;27499;48.884;2.258;2022-11-09T08:57:35;14.30;99.90
41058;DHT22;27499;48.884;2.258;2022-11-09T09:00:03;14.30;99.90
41058;DHT22;27499;48.884;2.258;2022-11-09T09:02:31;14.30;99.90
41058;DHT22;27499;48.884;2.258;2022-11-09T09:04:57;14.30;99.90
41058;DHT22;27499;48.884;2.258;2022-11-09T09:07:24;14.40;99.90
41058;DHT22;27499;48.884;2.258;2022-11-09T09:09:51;14.40;99.90
41058;DHT22;27499;48.884;2.258;2022-11-09T09:12:18;14.50;99.90
41058;DHT22;27499;48.884;2.258;2022-11-09T09:14:45;14.50;99.90
41058;DHT22;27499;48.884;2.258;2022-11-09T09:17:12;14.50;99.90
41058;DHT22;27499;48.884;2.258;2022-11-09T09:19:39;14.60;99.90
41058;DHT22;27499;48.884;2.258;2022-11-09T09:22:12;14.60;99.90
41058;DHT22;27499;48.884;2.258;2022-11-09T09:24:39;14.60;99.90
41058;DHT22;27499;48.884;2.258;2022-11-09T09:27:06;14.60;99.90
41058;DHT22;27499;48.884;2.258;2022-11-09T09:29:33;14.60;99.90
41058;DHT22;27499;48.884;2.258;2022-11-09T09:32:00;14.70;99.90
41058;DHT22;27499;48.884;2.258;2022-11-09T09:34:27;14.70;99.90
41058;DHT22;27499;48.884;2.258;2022-11-09T09:36:54;14.70;99.90
41058;DHT22;27499;48.884;2.258;2022-11-09T09:39:21;14.70;99.90
41058;DHT22;27499;48.884;2.258;2022-11-09T09:41:56;14.70;99.90
41058;DHT22;27499;48.884;2.258;2022-11-09T09:44:35;14.70;99.90
41058;DHT22;27499;48.884;2.258;2022-11-09T09:49:46;14.80;99.90
41058;DHT22;27499;48.884;2.258;2022-11-09T09:57:33;14.90;99.90
41058;DHT22;27499;48.884;2.258;2022-11-09T10:00:17;14.90;99.90
41058;DHT22;27499;48.884;2.258;2022-11-09T10:02:45;14.90;99.90
41058;DHT22;27499;48.884;2.258;2022-11-09T10:05:14;15.00;99.90
41058;DHT22;27499;48.884;2.258;2022-11-09T10:08:23;15.00;99.90
41058;DHT22;27499;48.884;2.258;2022-11-09T10:13:46;15.00;99.90
41058;DHT22;27499;48.884;2.258;2022-11-09T10:26:49;15.10;99.90
41058;DHT22;27499;48.884;2.258;2022-11-09T10:29:35;15.10;99.90
41058;DHT22;27499;48.884;2.258;2022-11-09T10:32:16;15.10;99.90
41058;DHT22;27499;48.884;2.258;2022-11-09T10:35:05;15.10;99.90
41058;DHT22;27499;48.884;2.258;2022-11-09T10:37:42;15.10;99.90
41058;DHT22;27499;48.884;2.258;2022-11-09T10:40:27;15.10;99.90
41058;DHT22;27499;48.884;2.258;2022-11-09T10:43:01;15.10;99.90
41058;DHT22;27499;48.884;2.258;2022-11-09T10:45:30;15.20;99.90
41058;DHT22;27499;48.884;2.258;2022-11-09T10:47:58;15.20;99.90
41058;DHT22;27499;48.884;2.258;2022-11-09T10:55:34;15.30;99.90
41058;DHT22;27499;48.884;2.258;2022-11-09T11:03:35;15.40;99.90
41058;DHT22;27499;48.884;2.258;2022-11-09T11:06:05;15.40;99.90
41058;DHT22;27499;48.884;2.258;2022-11-09T11:08:35;15.40;99.90
41058;DHT22;27499;48.884;2.258;2022-11-09T11:16:49;15.60;99.90
41058;DHT22;27499;48.884;2.258;2022-11-09T11:19:39;15.50;99.90
41058;DHT22;27499;48.884;2.258;2022-11-09T11:27:34;15.60;99.90
41058;DHT22;27499;48.884;2.258;2022-11-09T11:30:17;15.60;99.90
41058;DHT22;27499;48.884;2.258;2022-11-09T11:32:45;15.60;99.90
41058;DHT22;27499;48.884;2.258;2022-11-09T11:38:28;15.70;99.90
41058;DHT22;27499;48.884;2.258;2022-11-09T11:52:00;15.70;99.90
41058;DHT22;27499;48.884;2.258;2022-11-09T11:55:16;15.70;99.90
41058;DHT22;27499;48.884;2.258;2022-11-09T12:00:20;15.80;99.90
41058;DHT22;27499;48.884;2.258;2022-11-09T12:06:15;15.80;99.90
41058;DHT22;27499;48.884;2.258;2022-11-09T12:14:31;15.70;99.90
41058;DHT22;27499;48.884;2.258;2022-11-09T12:34:08;15.80;99.90
41058;DHT22;27499;48.884;2.258;2022-11-09T12:36:49;15.80;99.90
41058;DHT22;27499;48.884;2.258;2022-11-09T12:41:57;15.90;99.90
41058;DHT22;27499;48.884;2.258;2022-11-09T12:44:30;15.90;99.90
41058;DHT22;27499;48.884;2.258;2022-11-09T12:47:19;15.90;99.90
41058;DHT22;27499;48.884;2.258;2022-11-09T12:49:47;15.90;99.90
41058;DHT22;27499;48.884;2.258;2022-11-09T12:52:17;15.80;99.90
41058;DHT22;27499;48.884;2.258;2022-11-09T12:54:48;15.80;99.90
41058;DHT22;27499;48.884;2.258;2022-11-09T12:57:24;15.80;99.90
41058;DHT22;27499;48.884;2.258;2022-11-09T12:59:56;15.80;99.90
41058;DHT22;27499;48.884;2.258;2022-11-09T13:02:42;15.80;99.90
41058;DHT22;27499;48.884;2.258;2022-11-09T13:05:32;15.80;99.90
41058;DHT22;27499;48.884;2.258;2022-11-09T13:08:00;15.70;99.90
41058;DHT22;27499;48.884;2.258;2022-11-09T13:10:34;15.80;99.90
41058;DHT22;27499;48.884;2.258;2022-11-09T13:13:22;15.70;99.90
41058;DHT22;27499;48.884;2.258;2022-11-09T13:23:48;15.70;99.90
41058;DHT22;27499;48.884;2.258;2022-11-09T13:29:28;15.60;99.90
41058;DHT22;27499;48.884;2.258;2022-11-09T13:48:02;15.50;99.90
41058;DHT22;27499;48.884;2.258;2022-11-09T13:50:31;15.50;99.90
41058;DHT22;27499;48.884;2.258;2022-11-09T13:52:59;15.50;99.90
41058;DHT22;27499;48.884;2.258;2022-11-09T13:55:40;15.40;99.90
41058;DHT22;27499;48.884;2.258;2022-11-09T13:58:22;15.40;99.90
41058;DHT22;27499;48.884;2.258;2022-11-09T14:00:50;15.30;99.90
41058;DHT22;27499;48.884;2.258;2022-11-09T14:03:25;15.30;99.90
41058;DHT22;27499;48.884;2.258;2022-11-09T14:05:58;15.30;99.90
41058;DHT22;27499;48.884;2.258;2022-11-09T14:08:35;15.30;99.90
41058;DHT22;27499;48.884;2.258;2022-11-09T14:17:56;15.20;99.90
41058;DHT22;27499;48.884;2.258;2022-11-09T14:20:14;15.20;99.90
41058;DHT22;27499;48.884;2.258;2022-11-09T14:22:44;15.20;99.90
41058;DHT22;27499;48.884;2.258;2022-11-09T14:25:14;15.20;99.90
41058;DHT22;27499;48.884;2.258;2022-11-09T14:27:50;15.20;99.90
41058;DHT22;27499;48.884;2.258;2022-11-09T14:30:23;15.10;99.90
41058;DHT22;27499;48.884;2.258;2022-11-09T14:32:52;15.10;99.90
41058;DHT22;27499;48.884;2.258;2022-11-09T14:35:31;15.10;99.90
41058;DHT22;27499;48.884;2.258;2022-11-09T14:38:01;15.10;99.90
41058;DHT22;27499;48.884;2.258;2022-11-09T14:40:30;15.10;99.90
41058;DHT22;27499;48.884;2.258;2022-11-09T14:42:59;15.10;99.90
41058;DHT22;27499;48.884;2.258;2022-11-09T14:45:28;15.10;99.90
41058;DHT22;27499;48.884;2.258;2022-11-09T14:47:57;15.10;99.90
41058;DHT22;27499;48.884;2.258;2022-11-09T14:50:30;15.00;99.90
41058;DHT22;27499;48.884;2.258;2022-11-09T14:52:59;15.00;99.90
41058;DHT22;27499;48.884;2.258;2022-11-09T14:55:27;15.00;99.90
41058;DHT22;27499;48.884;2.258;2022-11-09T14:57:55;15.00;99.90
41058;DHT22;27499;48.884;2.258;2022-11-09T15:00:28;14.90;99.90
41058;DHT22;27499;48.884;2.258;2022-11-09T15:02:56;14.90;99.90
41058;DHT22;27499;48.884;2.258;2022-11-09T15:05:35;14.90;99.90
41058;DHT22;27499;48.884;2.258;2022-11-09T15:08:17;14.90;99.90
41058;DHT22;27499;48.884;2.258;2022-11-09T15:10:52;14.90;99.90
41058;DHT22;27499;48.884;2.258;2022-11-09T15:13:29;14.90;99.90
41058;DHT22;27499;48.884;2.258;2022-11-09T15:15:57;14.80;99.90
41058;DHT22;27499;48.884;2.258;2022-11-09T15:18:27;14.90;99.90
41058;DHT22;27499;48.884;2.258;2022-11-09T15:23:46;14.90;99.90
41058;DHT22;27499;48.884;2.258;2022-11-09T15:26:25;14.80;99.90
41058;DHT22;27499;48.884;2.258;2022-11-09T15:28:53;14.80;99.90
41058;DHT22;27499;48.884;2.258;2022-11-09T15:31:20;14.90;99.90
41058;DHT22;27499;48.884;2.258;2022-11-09T15:33:53;14.90;99.90
41058;DHT22;27499;48.884;2.258;2022-11-09T15:36:27;14.90;99.90
41058;DHT22;27499;48.884;2.258;2022-11-09T15:38:58;14.90;99.90
41058;DHT22;27499;48.884;2.258;2022-11-09T15:41:26;14.90;99.90
41058;DHT22;27499;48.884;2.258;2022-11-09T15:43:53;14.90;99.90
41058;DHT22;27499;48.884;2.258;2022-11-09T15:46:26;14.90;99.90
41058;DHT22;27499;48.884;2.258;2022-11-09T15:48:57;14.80;99.90
41058;DHT22;27499;48.884;2.258;2022-11-09T15:51:24;14.80;99.90
41058;DHT22;27499;48.884;2.258;2022-11-09T15:53:51;14.80;99.90
41058;DHT22;27499;48.884;2.258;2022-11-09T15:56:23;14.70;99.90
41058;DHT22;27499;48.884;2.258;2022-11-09T15:58:50;14.70;99.90
41058;DHT22;27499;48.884;2.258;2022-11-09T16:01:19;14.70;99.90
41058;DHT22;27499;48.884;2.258;2022-11-09T16:03:46;14.70;99.90
41058;DHT22;27499;48.884;2.258;2022-11-09T16:06:16;14.70;99.90
41058;DHT22;27499;48.884;2.258;2022-11-09T16:08:49;14.60;99.90
41058;DHT22;27499;48.884;2.258;2022-11-09T16:11:17;14.60;99.90
41058;DHT22;27499;48.884;2.258;2022-11-09T16:13:43;14.60;99.90
41058;DHT22;27499;48.884;2.258;2022-11-09T16:16:12;14.60;99.90
41058;DHT22;27499;48.884;2.258;2022-11-09T16:18:39;14.60;99.90
41058;DHT22;27499;48.884;2.258;2022-11-09T16:21:08;14.60;99.90
41058;DHT22;27499;48.884;2.258;2022-11-09T16:23:35;14.50;99.90
41058;DHT22;27499;48.884;2.258;2022-11-09T16:26:10;14.50;99.90
41058;DHT22;27499;48.884;2.258;2022-11-09T16:28:37;14.50;99.90
41058;DHT22;27499;48.884;2.258;2022-11-09T16:31:06;14.50;99.90
41058;DHT22;27499;48.884;2.258;2022-11-09T16:33:33;14.50;99.90
41058;DHT22;27499;48.884;2.258;2022-11-09T16:36:15;14.50;99.90
41058;DHT22;27499;48.884;2.258;2022-11-09T16:38:45;14.50;99.90
41058;DHT22;27499;48.884;2.258;2022-11-09T16:41:13;14.50;99.90
41058;DHT22;27499;48.884;2.258;2022-11-09T16:43:42;14.50;99.90
41058;DHT22;27499;48.884;2.258;2022-11-09T16:46:11;14.40;99.90
41058;DHT22;27499;48.884;2.258;2022-11-09T16:48:39;14.50;99.90
41058;DHT22;27499;48.884;2.258;2022-11-09T16:51:06;14.40;99.90
41058;DHT22;27499;48.884;2.258;2022-11-09T16:53:32;14.40;99.90
41058;DHT22;27499;48.884;2.258;2022-11-09T16:55:59;14.40;99.90
41058;DHT22;27499;48.884;2.258;2022-11-09T16:58:26;14.40;99.90
41058;DHT22;27499;48.884;2.258;2022-11-09T17:00:53;14.40;99.90
41058;DHT22;27499;48.884;2.258;2022-11-09T17:03:39;14.30;99.90
41058;DHT22;27499;48.884;2.258;2022-11-09T17:06:06;14.30;99.90
41058;DHT22;27499;48.884;2.258;2022-11-09T17:08:37;14.30;99.90
41058;DHT22;27499;48.884;2.258;2022-11-09T17:11:10;14.30;99.90
41058;DHT22;27499;48.884;2.258;2022-11-09T17:13:38;14.30;99.90
41058;DHT22;27499;48.884;2.258;2022-11-09T17:16:08;14.30;99.90
41058;DHT22;27499;48.884;2.258;2022-11-09T17:18:36;14.30;99.90
41058;DHT22;27499;48.884;2.258;2022-11-09T17:21:11;14.30;99.90
41058;DHT22;27499;48.884;2.258;2022-11-09T17:23:41;14.20;99.90
41058;DHT22;27499;48.884;2.258;2022-11-09T17:26:08;14.20;99.90
41058;DHT22;27499;48.884;2.258;2022-11-09T17:28:36;14.20;99.90
41058;DHT22;27499;48.884;2.258;2022-11-09T17:31:26;14.20;99.90
41058;DHT22;27499;48.884;2.258;2022-11-09T17:33:55;14.20;99.90
41058;DHT22;27499;48.884;2.258;2022-11-09T17:36:26;14.20;99.90
41058;DHT22;27499;48.884;2.258;2022-11-09T17:39:13;14.20;99.90
41058;DHT22;27499;48.884;2.258;2022-11-09T17:41:40;14.20;99.90
41058;DHT22;27499;48.884;2.258;2022-11-09T17:44:08;14.20;99.90
41058;DHT22;27499;48.884;2.258;2022-11-09T17:46:35;14.20;99.90
41058;DHT22;27499;48.884;2.258;2022-11-09T17:49:02;14.20;99.90
41058;DHT22;27499;48.884;2.258;2022-11-09T17:51:35;14.20;99.90